Aeroporto :
LOGIN :

Iscrizione | Disclaimer

   EN    FR    IT 

 










Sommario :    VFR   VFR Marginale   IFR   IFR Intensivo   IFR Molto Intensivo
Visibilità : 
Base nubi : 
>= 8 km
>= 3000ft
5 / 8 km
1000 / 3000 ft
1500m / 5 km
500 / 1000 ft
800 / 1500m
200 / 500 ft
< 800m
< 200 ft
Simboli :   Temporali  Nebbia  Neve Forte  Precipitazioni Forti  Vento > 20 kt
SIGMETs :   Varie  Temporali  Ghiacco  Turbolenza  Onda orograficha  Ceneri Vulcaniche






- Altitudine del aeroporto : 112 ft
- Codice IATA : SVQ


LEZL - Sevilla San Pablo

ULTIMO METAR :
  • 080930Z AUTO 06004KT CAVOK 18/12 Q1022

METARs OBSOLETI :
  • 080900Z AUTO 07006KT 040V110 CAVOK 18/13 Q1021
  • 080830Z AUTO 08006KT 050V110 CAVOK 17/13 Q1021
  • 080800Z AUTO 08005KT CAVOK 16/13 Q1021
  • 080730Z AUTO 07006KT CAVOK 16/13 Q1021
  • 080700Z AUTO 06005KT 360V100 9999 FEW018 15/14 Q1021
  • 080630Z AUTO 06005KT 8000 FEW008 BKN018 15/14 Q1021

TAF TAF LEZL
Valido dal 08 a 09 ore il 09 a 09 ore UTC


080800Z 0809/0909 09004KT 9999 SCT045 TX23/0815Z TN14/0906Z



MetMap, La meteo Aeronautica in un colpo d'occhio ! - Copyright ORBIFLY Dicembre 2007 - Disclaimer

ORBIFLY MET'MAP TEAM :

Programmazione e sviluppo : Alexandra Zaïnal
Concezione : Baudouin d'Aumeries
Aiuto per la programmazione : Marc-Olivier Méhu
Supporto tecnico e logistico : Manuel Goepfert
Aiuto per la traduzione : Arnaldo La Scala

Contatto : metmap@orbifly.com




FONTI E CREDITI :

   NOAA